Latest Coastal Weather Observations for Wynyard

IDV60701

Issued at 2:55 am EST Wednesday 30 July 2014 (issued every 10 minutes, with the page automatically refreshed every 10 minutes)

About coastal observations | Map of coastal stations | Coastal observations for VIC | Marine services | Other Formats
Station Details ID: 091107 Name: WYNYARD AIRPORT Lat: -41.00 Lon: 145.73 Height: 12.0 m
Data from the previous 72 hours. | See also: Recent months at Wynyard
Date/Time
EST
Temp

°C
Wind Pressure Rain
since 9am
mm
Weather Cloud Vis
km
Sea
Height
m
Swell
Dir
 
Speed
knots
Gust
knots
hPa Trend Height
m
Period
s
Dir
30/02:30am 11.5 W 20 29 1001.2 - 6.2 - Partly cloudy 10 - - - -
30/02:00am 11.6 W 23 35 1001.0 - 6.2 - Partly cloudy 10 - - - -
30/01:30am 11.8 W 21 31 1000.4 - 6.2 - Partly cloudy 10 - - - -
30/01:03am 11.9 W 19 30 999.9 - 6.2 - Partly cloudy 9 - - - -
30/01:00am 11.8 W 19 27 1000.0 - 6.2 - Partly cloudy 9 - - - -
30/12:30am 12.1 W 21 31 999.5 - 6.2 - Partly cloudy 10 - - - -
30/12:00am 12.1 W 25 37 999.1 - 6.2 - Mostly cloudy 10 - - - -
 
Date/Time
EST
Temp

°C
Wind Pressure Rain
since 9am
mm
Weather Cloud Vis
km
Sea
Height
m
Swell
Dir
 
Speed
knots
Gust
knots
hPa Trend Height
m
Period
s
Dir
29/11:30pm 11.8 W 30 42 998.5 - 6.2 - Partly cloudy 10 - - - -
29/11:29pm 11.9 W 32 42 998.4 - 6.2 - Partly cloudy 10 - - - -
29/11:28pm 12.2 W 34 42 998.3 - 6.2 - Partly cloudy 10 - - - -
29/11:00pm 11.4 W 23 35 998.5 - 6.2 - Partly cloudy 9 - - - -
29/10:30pm 11.7 W 23 35 998.1 - 6.0 - Partly cloudy 9 - - - -
29/10:08pm 11.2 W 17 27 998.3 - 6.0 - Partly cloudy 9 - - - -
29/10:02pm 11.2 W 17 23 998.1 - 6.0 - Partly cloudy 8 - - - -
29/10:00pm 11.1 W 17 23 998.0 - 6.0 - Partly cloudy 8 - - - -
29/09:43pm 10.7 WSW 17 29 998.0 - 6.0 - Partly cloudy 4 - - - -
29/09:37pm 10.9 W 16 21 998.0 - 5.2 - Partly cloudy 5 - - - -
29/09:34pm 10.9 W 15 21 997.9 - 5.2 - Partly cloudy 7 - - - -
29/09:30pm 11.1 W 17 21 997.7 - 5.0 - Partly cloudy 8 - - - -
29/09:21pm 11.0 W 26 36 997.5 - 5.0 - Partly cloudy 4 - - - -
29/09:14pm 11.3 W 30 36 997.7 - 5.0 - Partly cloudy 5 - - - -
29/09:01pm 12.0 W 20 33 997.3 - 4.4 - Partly cloudy 8 - - - -
29/09:00pm 11.7 W 19 24 997.4 - 4.4 - Cloudy 8 - - - -
29/08:45pm 11.6 W 20 30 997.4 - 4.4 - Partly cloudy 7 - - - -
29/08:44pm 11.7 W 21 30 997.3 - 4.4 - Partly cloudy 7 - - - -
29/08:30pm 12.1 WNW 25 37 996.7 - 4.4 - Partly cloudy 5 - - - -
29/08:27pm 11.9 WNW 23 33 996.8 - 4.4 - Partly cloudy 5 - - - -
29/08:00pm 12.3 WNW 24 35 996.3 - 4.4 - Partly cloudy 9 - - - -
29/07:30pm 12.0 W 25 39 996.3 - 4.4 - Partly cloudy 9 - - - -
29/07:10pm 12.1 WNW 24 37 995.8 - 4.4 - Partly cloudy 7 - - - -
29/07:00pm 12.0 WNW 19 31 995.6 - 4.4 - Partly cloudy 5 - - - -
29/06:48pm 11.9 W 18 23 995.3 - 4.2 - Partly cloudy 7 - - - -
29/06:30pm 12.4 W 30 42 995.1 - 3.2 - Partly cloudy 5 - - - -
29/06:07pm 12.8 W 27 39 994.8 - 3.0 - Partly cloudy 10 - - - -
29/06:00pm 12.9 W 31 43 994.7 - 3.0 - Cloudy 8 - - - -
29/05:52pm 12.8 WNW 30 41 994.3 - 3.0 - Partly cloudy 5 - - - -
29/05:30pm 13.7 WNW 27 38 993.4 - 3.0 - Partly cloudy 10 - - - -
29/05:00pm 13.5 WNW 30 44 993.4 - 3.0 - Partly cloudy 10 - - - -
29/04:55pm 13.2 W 29 39 993.6 - 3.0 - Partly cloudy 8 - - - -
29/04:51pm 13.3 W 32 37 993.3 - 3.0 - Partly cloudy 7 - - - -
29/04:30pm 13.7 WNW 22 35 993.3 - 2.8 - Partly cloudy 9 - - - -
29/04:00pm 13.9 WNW 24 36 993.5 - 2.8 - Partly cloudy 10 - - - -
29/03:30pm 13.4 WNW 25 36 993.4 - 2.8 - Partly cloudy 6 - - - -
29/03:21pm 13.4 WNW 25 36 993.3 - 2.4 - Partly cloudy 6 - - - -
29/03:01pm 13.1 WNW 21 31 993.6 - 2.4 - Partly cloudy 4 - - - -
29/03:00pm 13.1 WNW 21 29 993.7 - 2.4 Recent precip. Cloudy 4 - - - -
29/02:48pm 13.0 WNW 21 32 993.9 - 2.4 - Partly cloudy 5 - - - -
29/02:38pm 12.9 WNW 21 28 994.1 - 2.2 - Partly cloudy 5 - - - -
29/02:30pm 13.2 WNW 20 27 994.1 - 2.0 - Partly cloudy 10 - - - -
29/02:09pm 12.9 WNW 19 31 994.6 - 2.0 - Partly cloudy 10 - - - -
29/02:00pm 12.6 WNW 21 29 994.6 - 2.0 - Partly cloudy 10 - - - -
29/01:55pm 12.5 WNW 22 29 994.6 - 2.0 - Partly cloudy 10 - - - -
29/01:36pm 12.1 WNW 18 25 995.1 - 2.0 - Partly cloudy 5 - - - -
29/01:30pm 12.3 WNW 18 23 995.2 - 1.8 - Partly cloudy 7 - - - -
29/01:23pm 12.1 WNW 18 24 995.2 - 1.8 - Partly cloudy 8 - - - -
29/01:04pm 11.9 WNW 17 26 995.7 - 1.4 - Partly cloudy 5 - - - -
29/01:00pm 11.9 WNW 16 23 995.7 - 1.4 - Partly cloudy 8 - - - -
29/12:58pm 11.9 WNW 16 26 995.7 - 1.4 - Partly cloudy 9 - - - -
29/12:30pm 11.7 W 18 25 996.0 - 1.4 - Partly cloudy 10 - - - -
29/12:00pm 12.0 W 21 33 996.2 - 1.4 Recent precip. Cloudy 10 - - - -
29/11:57am 11.8 W 22 33 996.2 - 1.4 - Partly cloudy 10 - - - -
29/11:47am 12.3 WSW 20 28 996.1 - 1.2 - Partly cloudy 5 - - - -
29/11:34am 13.1 WNW 21 32 995.7 - 0.8 - Partly cloudy 5 - - - -
29/11:30am 13.7 WNW 22 32 995.6 - 0.4 - Partly cloudy 10 - - - -
29/11:00am 13.5 WNW 19 32 996.0 - 0.4 - Partly cloudy 9 - - - -
29/10:45am 13.5 WNW 15 26 996.2 - 0.4 - Partly cloudy 9 - - - -
29/10:30am 13.4 WNW 16 23 996.3 - 0.4 - Partly cloudy 10 - - - -
29/10:00am 13.6 WNW 23 35 996.5 - 0.4 - Partly cloudy 10 - - - -
29/09:30am 13.6 WNW 23 39 996.4 - 0.4 - Partly cloudy 9 - - - -
29/09:27am 13.4 WNW 21 31 996.4 - 0.4 - Partly cloudy 9 - - - -
29/09:10am 12.9 WNW 21 31 996.5 - 0.2 - Partly cloudy 5 - - - -
29/09:00am 13.4 WNW 23 34 996.7 - 42.6 Recent precip. Cloudy 8 - - - -
29/08:59am 13.4 WNW 23 34 996.7 - 42.6 - Partly cloudy 8 - - - -
29/08:49am 13.1 WNW 22 31 996.6 - 42.6 - Partly cloudy 6 - - - -
29/08:30am 12.7 WNW 29 40 996.6 - 42.4 - Partly cloudy 3 - - - -
29/08:23am 12.8 WNW 23 40 996.6 - 41.4 - Partly cloudy 5 - - - -
29/08:07am 13.1 WNW 21 33 996.9 - 41.0 - Partly cloudy 10 - - - -
29/08:01am 13.0 WNW 26 37 996.9 - 41.0 - Partly cloudy 10 - - - -
29/08:00am 13.0 WNW 26 37 996.9 - 41.0 - Partly cloudy 10 - - - -
29/07:59am 13.1 WNW 27 37 996.8 - 41.0 - Partly cloudy 10 - - - -
29/07:54am 12.9 WNW 30 37 996.6 - 41.0 - Partly cloudy 7 - - - -
29/07:35am 11.9 WNW 19 29 996.7 - 39.6 - Partly cloudy 2 - - - -
29/07:30am 11.5 WNW 21 30 996.6 - 38.6 - Partly cloudy 4 - - - -
29/07:14am 11.5 WNW 28 38 997.0 - 34.4 - Partly cloudy 1 - - - -
29/07:12am 11.8 WNW 31 38 996.6 - 32.2 - Partly cloudy 2 - - - -
29/07:00am 12.4 NW 20 30 996.8 - 27.8 - Partly cloudy 2 - - - -
29/06:59am 12.5 NW 19 28 997.0 - 27.2 - Partly cloudy 3 - - - -
29/06:49am 12.7 NW 23 40 996.9 - 25.2 - Partly cloudy 5 - - - -
29/06:39am 12.8 NW 22 43 996.4 - 25.0 - Partly cloudy 4 - - - -
29/06:30am 12.6 NW 20 32 997.0 - 24.2 - Partly cloudy 5 - - - -
29/06:23am 12.5 NW 16 32 997.2 - 23.8 - Partly cloudy 5 - - - -
29/06:18am 12.3 NW 16 24 997.1 - 23.8 - Partly cloudy 5 - - - -
29/06:04am 12.4 NW 18 26 997.8 - 23.0 - Partly cloudy 4 - - - -
29/06:00am 12.3 NW 20 31 998.0 - 22.8 Rain Cloudy 3 - - - -
29/05:47am 12.5 NW 21 34 998.1 - 21.2 - Partly cloudy 4 - - - -
29/05:41am 12.5 NW 20 27 997.9 - 20.6 - Partly cloudy 2 - - - -
29/05:38am 12.1 W 18 27 998.0 - 20.4 - Partly cloudy 2 - - - -
29/05:35am 12.0 W 17 27 997.7 - 20.2 - Partly cloudy 2 - - - -
29/05:30am 12.4 NW 17 25 997.4 - 18.4 - Partly cloudy 4 - - - -
29/05:15am 12.6 NW 20 30 998.4 - 16.6 - Partly cloudy 5 - - - -
29/05:01am 12.5 NW 19 29 998.5 - 16.4 - Partly cloudy 8 - - - -
29/05:00am 12.5 NW 19 29 998.5 - 16.4 - Partly cloudy 9 - - - -
29/04:39am 12.5 NW 21 31 999.0 - 16.2 - Partly cloudy 8 - - - -
29/04:33am 12.5 NW 22 31 999.1 - 16.2 - Partly cloudy 8 - - - -
29/04:30am 12.5 NW 21 31 999.0 - 16.2 - Partly cloudy 8 - - - -
29/04:13am 11.9 NW 19 32 999.3 - 16.0 - Partly cloudy 2 - - - -
29/04:11am 11.9 NW 18 27 999.3 - 14.4 - Partly cloudy 2 - - - -
29/04:03am 12.1 NW 18 28 999.6 - 11.6 - Partly cloudy 4 - - - -
29/04:01am 12.2 NW 19 28 999.6 - 11.4 - Partly cloudy 4 - - - -
29/04:00am 12.2 NW 19 28 999.7 - 11.4 - Partly cloudy 5 - - - -
29/03:49am 12.2 NW 15 22 999.9 - 10.4 - Partly cloudy 5 - - - -
29/03:47am 12.2 NW 15 22 999.9 - 10.4 - Partly cloudy 5 - - - -
29/03:44am 12.2 NW 15 22 999.9 - 9.6 - Partly cloudy 8 - - - -
29/03:43am 12.2 NW 16 22 999.9 - 9.6 - Partly cloudy 7 - - - -
29/03:31am 12.4 NW 19 26 1000.0 - 9.6 - Partly cloudy 5 - - - -
29/03:30am 12.4 NW 18 26 1000.0 - 9.6 - Partly cloudy 6 - - - -
29/03:22am 12.6 NW 18 28 1000.2 - 9.4 - Partly cloudy 8 - - - -
29/03:20am 12.6 NW 18 28 1000.2 - 9.4 - Partly cloudy 9 - - - -
29/03:00am 12.4 NW 15 26 1000.6 - 9.4 Recent precip. Cloudy 10 - - - -
29/02:39am 12.4 NW 15 26 1001.3 - 9.4 - Partly cloudy 10 - - - -
29/02:30am 12.3 NW 16 23 1001.4 - 9.4 - Partly cloudy 10 - - - -
29/02:25am 12.3 NW 15 23 1001.5 - 9.4 - Partly cloudy 10 - - - -
29/02:14am 12.0 NW 16 23 1001.9 - 9.2 - Partly cloudy 5 - - - -
29/02:13am 12.0 NW 16 23 1001.9 - 9.2 - Partly cloudy 5 - - - -
29/02:07am 12.2 NW 16 21 1002.1 - 9.2 - Partly cloudy 5 - - - -
29/02:00am 12.3 NW 15 25 1002.3 - 9.0 - Partly cloudy 9 - - - -
29/01:56am 12.4 NW 15 25 1002.2 - 9.0 - Partly cloudy 10 - - - -
29/01:52am 12.4 NW 16 25 1002.1 - 9.0 - Partly cloudy 10 - - - -
29/01:30am 12.0 NW 16 23 1002.5 - 9.0 - Partly cloudy 9 - - - -
29/01:11am 12.3 NW 18 28 1002.7 - 8.4 - Partly cloudy 10 - - - -
29/01:00am 12.0 NW 16 24 1003.0 - 8.4 - Partly cloudy 9 - - - -
29/12:30am 11.4 NW 15 23 1003.6 - 8.4 - Partly cloudy 9 - - - -
29/12:00am 11.1 NW 10 17 1004.1 - 8.2 Rain Cloudy 10 - - - -
 
Date/Time
EST
Temp

°C
Wind Pressure Rain
since 9am
mm
Weather Cloud Vis
km
Sea
Height
m
Swell
Dir
 
Speed
knots
Gust
knots
hPa Trend Height
m
Period
s
Dir
28/11:30pm 11.1 NW 11 19 1004.4 - 7.6 - Partly cloudy 10 - - - -
28/11:00pm 11.9 W 10 14 1004.7 - 7.0 - Partly cloudy 9 - - - -
28/10:38pm 12.2 WNW 15 23 1005.0 - 6.6 - Partly cloudy 10 - - - -
28/10:30pm 12.1 W 15 23 1005.0 - 6.6 - Partly cloudy 10 - - - -
28/10:25pm 12.0 NW 17 21 1004.8 - 6.6 - Partly cloudy 10 - - - -
28/10:00pm 9.9 S 4 6 1005.2 - 6.6 - Partly cloudy 10 - - - -
28/09:59pm 9.9 S 4 6 1005.1 - 6.6 - Partly cloudy 10 - - - -
28/09:30pm 9.7 S 1 5 1005.3 - 6.4 - Partly cloudy 10 - - - -
28/09:07pm 9.6 SSE 5 5 1005.6 - 6.4 - Partly cloudy 10 - - - -
28/09:00pm 9.5 S 5 6 1005.8 - 6.4 - Cloudy 10 - - - -
28/08:54pm 9.6 S 4 6 1005.8 - 6.4 - Partly cloudy 10 - - - -
28/08:30pm 9.9 N 1 4 1005.9 - 6.4 - Partly cloudy 9 - - - -
28/08:00pm 9.8 WSW 1 3 1006.1 - 6.4 - Partly cloudy 10 - - - -
28/07:30pm 9.7 WSW 5 7 1006.3 - 6.4 - Partly cloudy 10 - - - -
28/07:00pm 9.7 W 4 5 1006.7 - 6.4 - Partly cloudy 10 - - - -
28/06:31pm 10.5 W 14 19 1006.3 - 6.4 - Partly cloudy 10 - - - -
28/06:30pm 10.5 W 14 19 1006.3 - 6.4 - Partly cloudy 10 - - - -
28/06:20pm 10.6 W 19 23 1006.2 - 6.4 - Partly cloudy 5 - - - -
28/06:16pm 10.8 WNW 30 41 1006.2 - 6.4 - Partly cloudy 5 - - - -
28/06:15pm 10.9 WNW 30 41 1006.3 - 6.2 - Partly cloudy 6 - - - -
28/06:14pm 11.0 WNW 32 41 1006.3 - 6.2 - Partly cloudy 7 - - - -
28/06:13pm 11.1 WNW 18 41 1006.4 - 6.2 - Partly cloudy 9 - - - -
28/06:00pm 11.5 WNW 13 20 1005.9 - 5.8 Recent precip. Cloudy 10 - - - -
28/05:30pm 12.4 WNW 16 20 1006.1 - 5.8 - Partly cloudy 10 - - - -
28/05:20pm 12.6 NNW 13 16 1005.5 - 5.4 - Partly cloudy 8 - - - -
28/05:07pm 12.8 NW 11 15 1005.9 - 5.2 - Partly cloudy 5 - - - -
28/05:00pm 13.0 NW 11 14 1006.0 - 4.8 - Partly cloudy 10 - - - -
28/04:30pm 13.3 NW 13 20 1005.9 - 4.8 - - 10 - - - -
28/04:00pm 13.7 WNW 12 17 1006.3 - 4.8 - Partly cloudy 10 - - - -
28/03:30pm 13.3 WNW 10 14 1006.1 - 4.8 - Partly cloudy 10 - - - -
28/03:00pm 13.5 WNW 11 15 1006.4 - 4.8 - Partly cloudy 10 - - - -
28/02:30pm 14.7 WNW 18 25 1006.5 - 4.8 - Partly cloudy 10 - - - -
28/02:21pm 14.4 WNW 18 25 1006.5 - 4.8 - Partly cloudy 10 - - - -
28/02:00pm 14.7 WNW 11 15 1006.8 - 4.8 - - 10 - - - -
28/01:30pm 12.0 WNW 14 18 1007.3 - 4.8 - Partly cloudy 10 - - - -
28/01:00pm 12.9 W 10 13 1007.7 - 4.8 - Partly cloudy 10 - - - -
28/12:30pm 13.0 NW 13 18 1007.8 - 4.8 - Partly cloudy 10 - - - -
28/12:19pm 12.8 WNW 16 25 1008.0 - 4.6 - Partly cloudy 10 - - - -
28/12:12pm 12.3 WNW 15 25 1008.0 - 4.6 - Partly cloudy 6 - - - -
28/12:00pm 12.6 WNW 13 17 1008.4 - 4.2 Rain Cloudy 2 - - - -
28/11:50am 13.3 WNW 14 18 1008.6 - 1.8 - Partly cloudy 5 - - - -
28/11:38am 13.5 NW 12 17 1008.5 - 0.8 - Partly cloudy 8 - - - -
28/11:30am 13.5 NW 12 19 1008.6 - 0.6 - Partly cloudy 6 - - - -
28/11:28am 13.8 NW 12 19 1008.7 - 0.6 - Partly cloudy 6 - - - -
28/11:18am 14.4 NW 14 20 1008.7 - 0.4 - Partly cloudy 10 - - - -
28/11:08am 14.3 NW 14 18 1008.8 - 0.4 - Partly cloudy 10 - - - -
28/11:00am 14.8 NW 13 20 1009.2 - 0.4 - Partly cloudy 10 - - - -
28/10:58am 14.5 NW 14 20 1009.0 - 0.4 - Partly cloudy 10 - - - -
28/10:54am 14.2 NW 15 22 1009.1 - 0.4 - Partly cloudy 10 - - - -
28/10:30am 13.9 WNW 11 17 1009.3 - 0.0 - Partly cloudy 10 - - - -
28/10:00am 13.9 W 5 7 1009.6 - 0.0 - Partly cloudy 10 - - - -
28/09:49am 13.4 W 7 9 1009.6 - 0.0 - Partly cloudy 10 - - - -
28/09:30am 12.7 W 6 10 1009.5 - 0.0 - Partly cloudy 10 - - - -
28/09:00am 11.2 W 5 6 1009.9 - 2.6 - Cloudy 10 - - - -
28/08:52am 10.5 W 6 7 1009.8 - 2.6 - Partly cloudy 10 - - - -
28/08:30am 10.3 W 7 9 1009.9 - 2.6 - Partly cloudy 10 - - - -
28/08:00am 10.4 W 6 8 1010.2 - 2.6 - Partly cloudy 10 - - - -
28/07:30am 10.6 WNW 9 11 1010.2 - 2.4 - Partly cloudy 10 - - - -
28/07:00am 11.1 WNW 11 16 1010.2 - 2.2 - Partly cloudy 9 - - - -
28/06:47am 11.4 WNW 12 16 1010.2 - 1.6 - Partly cloudy 10 - - - -
28/06:42am 11.7 WNW 13 16 1010.0 - 1.6 - Partly cloudy 9 - - - -
28/06:30am 12.1 W 13 19 1010.1 - 1.2 - Partly cloudy 4 - - - -
28/06:24am 12.5 W 13 17 1010.1 - 0.8 - Partly cloudy 5 - - - -
28/06:00am 12.8 NW 11 17 1009.7 - 0.0 - Cloudy 10 - - - -
28/05:30am 13.0 NW 13 17 1009.6 - 0.0 - Cloudy 10 - - - -
28/05:00am 13.0 NW 11 17 1009.8 - 0.0 - Partly cloudy 10 - - - -
28/04:30am 13.1 NW 12 18 1010.1 - 0.0 - Cloudy 10 - - - -
28/04:00am 12.9 NW 12 17 1010.5 - 0.0 - Cloudy 8 - - - -
28/03:30am 13.2 WNW 13 22 1010.8 - 0.0 - Cloudy 10 - - - -
28/03:00am 13.1 WNW 12 17 1011.2 - 0.0 - Cloudy 10 - - - -
28/02:30am 13.2 WNW 14 19 1011.6 - 0.0 - Cloudy 10 - - - -
28/02:00am 12.9 WNW 11 15 1012.0 - 0.0 - Partly cloudy 10 - - - -
28/01:30am 12.6 WNW 10 15 1012.0 - 0.0 - Cloudy 10 - - - -
28/01:00am 12.3 WNW 10 14 1012.4 - 0.0 - Partly cloudy 10 - - - -
28/12:30am 12.5 NW 11 15 1012.8 - 0.0 - Partly cloudy 10 - - - -
28/12:00am 11.6 WNW 8 11 1013.5 - 0.0 - Partly cloudy 10 - - - -
 
Date/Time
EST
Temp

°C
Wind Pressure Rain
since 9am
mm
Weather Cloud Vis
km
Sea
Height
m
Swell
Dir
 
Speed
knots
Gust
knots
hPa Trend Height
m
Period
s
Dir
27/11:30pm 11.4 WNW 8 10 1013.7 - 0.0 - Partly cloudy 10 - - - -
27/11:00pm 12.3 WNW 9 13 1013.9 - 0.0 - Partly cloudy 10 - - - -
27/10:30pm 12.0 WNW 9 12 1014.2 - 0.0 - Partly cloudy 10 - - - -
27/10:00pm 12.1 WNW 6 8 1014.6 - 0.0 - Partly cloudy 10 - - - -
27/09:30pm 12.5 NW 9 12 1014.6 - 0.0 - Partly cloudy 10 - - - -
27/09:00pm 12.8 NW 10 14 1015.1 - 0.0 - Cloudy 10 - - - -
27/08:30pm 12.8 NW 11 15 1015.1 - 0.0 - Partly cloudy 10 - - - -
27/08:00pm 12.7 NW 9 13 1015.5 - 0.0 - Cloudy 10 - - - -
27/07:30pm 12.6 NW 12 21 1015.6 - 0.0 - Partly cloudy 10 - - - -
27/07:00pm 12.5 NW 9 12 1015.9 - 0.0 - Partly cloudy 10 - - - -
27/06:30pm 12.3 NW 8 12 1015.8 - 0.0 - Partly cloudy 10 - - - -
27/06:00pm 12.3 NW 8 10 1016.0 - 0.0 - Cloudy 10 - - - -
27/05:30pm 12.4 NW 11 13 1015.8 - 0.0 - Partly cloudy 10 - - - -
27/05:00pm 12.6 NW 11 17 1015.8 - 0.0 - Partly cloudy 10 - - - -
27/04:30pm 12.7 NW 12 15 1015.7 - 0.0 - Partly cloudy 10 - - - -
27/04:00pm 12.8 NW 12 17 1016.2 - 0.0 - Partly cloudy 10 - - - -
27/03:30pm 12.9 NW 13 19 1016.2 - 0.0 - Partly cloudy 10 - - - -
27/03:00pm 13.0 NW 12 18 1016.6 - 0.0 - Cloudy 10 - - - -
27/02:30pm 13.2 NW 11 16 1016.5 - 0.0 - Partly cloudy 10 - - - -
27/02:00pm 13.8 NW 14 19 1016.9 - 0.0 - Partly cloudy 10 - - - -
27/01:30pm 13.2 NW 13 22 1017.4 - 0.0 - Partly cloudy 10 - - - -
27/01:00pm 13.6 NW 11 14 1017.9 - 0.0 - Partly cloudy 10 - - - -
27/12:30pm 13.3 NW 14 20 1018.7 - 0.0 - Partly cloudy 10 - - - -
27/12:25pm 13.4 NW 13 20 1018.7 - 0.0 - Partly cloudy 10 - - - -
27/12:09pm 13.6 NW 15 23 1019.0 - 0.0 - Partly cloudy 10 - - - -
27/12:00pm 13.4 NW 12 18 1019.3 - 0.0 - Cloudy 10 - - - -
27/11:46am 13.2 NW 10 14 1019.5 - 0.0 - Partly cloudy 10 - - - -
27/11:31am 12.4 N 4 8 1019.7 - 0.0 - Partly cloudy 10 - - - -
27/11:30am 12.5 N 4 8 1019.8 - 0.0 - Partly cloudy 10 - - - -
27/11:00am 10.9 CALM 0 4 1020.2 - 0.0 - Partly cloudy 10 - - - -
27/10:42am 10.3 CALM 0 0 1020.5 - 0.0 - Partly cloudy 10 - - - -
27/10:30am 9.8 W 1 3 1020.7 - 0.0 - Partly cloudy 10 - - - -
27/10:04am 9.3 SW 1 3 1020.9 - 0.0 - Partly cloudy 10 - - - -
27/10:00am 9.1 SW 3 4 1020.9 - 0.0 - Partly cloudy 10 - - - -
27/09:30am 8.7 W 3 4 1021.2 - 0.0 - Partly cloudy 10 - - - -
27/09:00am 7.3 WNW 4 5 1021.5 - 0.2 - - 10 - - - -
27/08:30am 5.9 W 3 4 1021.4 - 0.2 - - 9 - - - -
27/08:03am 4.6 W 4 5 1021.6 - 0.2 - - 10 - - - -
27/08:00am 4.5 W 3 4 1021.6 - 0.2 - - 9 - - - -
27/07:34am 4.1 W 4 5 1021.6 - 0.2 - Partly cloudy 5 - - - -
27/07:30am 4.3 W 4 5 1021.7 - 0.2 - Partly cloudy 6 - - - -
27/07:00am 4.7 WSW 4 4 1021.5 - 0.2 - Partly cloudy 10 - - - -
27/06:30am 4.1 WSW 5 5 1021.3 - 0.2 - Partly cloudy 10 - - - -
27/06:22am 3.1 WSW 5 6 1021.2 - 0.2 - Partly cloudy 7 - - - -
27/06:04am 3.4 WSW 6 7 1021.1 - 0.2 - - 5 - - - -
27/06:00am 4.0 WSW 6 7 1021.1 - 0.2 - - 8 - - - -
27/05:30am 4.2 W 5 7 1020.9 - 0.2 - - 10 - - - -
27/05:09am 5.0 WNW 7 9 1020.9 - 0.2 - - 10 - - - -
27/05:00am 4.1 NW 4 6 1020.9 - 0.2 - - 8 - - - -
27/04:30am 3.8 W 5 6 1021.0 - 0.2 - - 3 - - - -
27/04:15am 4.4 WSW 4 5 1021.2 - 0.2 - - 5 - - - -
27/04:13am 4.8 WSW 4 5 1021.2 - 0.2 - - 10 - - - -
27/04:00am 4.1 W 6 8 1021.3 - 0.2 - - 5 - - - -
27/03:40am 3.9 WNW 5 6 1021.2 - 0.2 - - 5 - - - -
27/03:30am 4.7 WNW 6 6 1021.4 - 0.2 - - 7 - - - -
27/03:00am 5.1 W 2 5 1021.5 - 0.2 - - 10 - - - -

Other Formats:

Comma delimited format used in spreadsheet applications
http://www.bom.gov.au/fwo/IDV60701/IDV60701.95957.axf

JavaScript Object Notation format (JSON) in row-major order
http://www.bom.gov.au/fwo/IDV60701/IDV60701.95957.json